createdAt,value
2022-12-23T00:00:28.064Z,100067.16
2022-12-23T00:02:54.543Z,100074.97
2022-12-23T00:05:21.001Z,100076.94
2022-12-23T00:07:47.311Z,100081.94
2022-12-23T00:10:13.621Z,100090.88
2022-12-23T00:12:39.913Z,100077.63
2022-12-23T00:15:07.746Z,100081.59
2022-12-23T00:17:36.663Z,100082.25
2022-12-23T00:20:04.021Z,100081.09
2022-12-23T00:22:30.336Z,100085.41
2022-12-23T00:24:56.656Z,100094.19
2022-12-23T00:27:22.943Z,100090.38
2022-12-23T00:29:49.257Z,100087.88
2022-12-23T00:32:15.657Z,100092.19
2022-12-23T00:34:43.368Z,100088.38
2022-12-23T00:37:09.670Z,100099.16
2022-12-23T00:39:35.937Z,100101.81
2022-12-23T00:42:02.221Z,100099.84
2022-12-23T00:44:28.565Z,100100.66
2022-12-23T00:46:54.923Z,100098.16
2022-12-23T00:49:21.303Z,100100.66
2022-12-23T00:51:48.994Z,100107.09
2022-12-23T00:54:15.785Z,100108.47
2022-12-23T00:56:42.132Z,100111.75
2022-12-23T00:59:08.481Z,100114.59
2022-12-23T01:01:34.821Z,100119.53
2022-12-23T01:04:01.203Z,100136.97
2022-12-23T01:06:27.514Z,100131.66
2022-12-23T01:08:55.195Z,100135.63
2022-12-23T01:11:21.493Z,100129.66
2022-12-23T01:13:47.811Z,100132.31
2022-12-23T01:16:17.545Z,100133.63
2022-12-23T01:18:44.507Z,100142.09
2022-12-23T01:21:10.897Z,100147.25
2022-12-23T01:23:37.607Z,100148.41
2022-12-23T01:26:06.926Z,100151.75
2022-12-23T01:28:33.732Z,100150.72
2022-12-23T01:31:00.817Z,100146.78
2022-12-23T01:33:27.237Z,100147.59
2022-12-23T01:35:58.825Z,100145.94
2022-12-23T01:38:25.165Z,100142.63
2022-12-23T01:40:51.510Z,100145.44
2022-12-23T01:43:19.985Z,100141.81
2022-12-23T01:45:46.345Z,100138.31
2022-12-23T01:48:15.757Z,100147.44
2022-12-23T01:50:44.662Z,100160.06
2022-12-23T01:53:15.012Z,100159.38
2022-12-23T01:55:44.363Z,100160.84
2022-12-23T01:58:12.274Z,100167.81
2022-12-23T02:00:41.223Z,100170.00
2022-12-23T02:03:08.021Z,100169.00
2022-12-23T02:05:34.598Z,100174.47
2022-12-23T02:08:00.976Z,100184.25
2022-12-23T02:10:31.783Z,100181.28
2022-12-23T02:13:00.608Z,100172.00
2022-12-23T02:15:32.059Z,100183.75
2022-12-23T02:18:05.496Z,100190.25
2022-12-23T02:20:46.762Z,100185.44
2022-12-23T02:23:26.268Z,100182.63
2022-12-23T02:26:00.449Z,100185.59
2022-12-23T02:28:43.716Z,100185.09
2022-12-23T02:31:17.599Z,100184.72
2022-12-23T02:33:50.656Z,100187.09
2022-12-23T02:36:22.975Z,100187.59
2022-12-23T02:38:54.810Z,100195.38
2022-12-23T02:41:24.700Z,100187.75
2022-12-23T02:43:56.903Z,100197.53
2022-12-23T02:46:28.788Z,100209.66
2022-12-23T02:48:57.249Z,100225.06
2022-12-23T02:51:26.864Z,100230.88
2022-12-23T02:53:55.607Z,100235.19
2022-12-23T02:56:23.613Z,100245.97
2022-12-23T02:58:51.232Z,100249.97
2022-12-23T03:01:18.302Z,100250.28
2022-12-23T03:03:47.352Z,100252.28
2022-12-23T03:06:17.138Z,100250.78
2022-12-23T03:08:44.028Z,100247.31
2022-12-23T03:11:11.902Z,100253.78
2022-12-23T03:13:46.402Z,100250.28
2022-12-23T03:16:19.922Z,100251.47
2022-12-23T03:18:56.796Z,100251.63
2022-12-23T03:21:26.369Z,100253.44
2022-12-23T03:23:55.965Z,100262.06
2022-12-23T03:26:26.512Z,100251.78
2022-12-23T03:28:55.855Z,100250.94
2022-12-23T03:31:24.141Z,100255.25
2022-12-23T03:33:55.148Z,100252.09
2022-12-23T03:36:23.394Z,100243.13
2022-12-23T03:38:50.684Z,100243.13
2022-12-23T03:41:19.450Z,100243.81
2022-12-23T03:43:51.009Z,100248.44
2022-12-23T03:46:19.970Z,100251.94
2022-12-23T03:48:48.569Z,100250.44
2022-12-23T03:51:18.104Z,100246.47
2022-12-23T03:53:46.745Z,100242.31
2022-12-23T03:56:15.184Z,100244.81
2022-12-23T03:58:44.842Z,100241.47
2022-12-23T04:01:17.937Z,100244.13
2022-12-23T04:03:49.658Z,100250.28
2022-12-23T04:06:19.661Z,100247.16
2022-12-23T04:08:47.133Z,100257.75
2022-12-23T04:11:13.539Z,100248.13
2022-12-23T04:13:39.948Z,100255.59
2022-12-23T04:16:07.052Z,100260.72
2022-12-23T04:18:33.608Z,100256.09
2022-12-23T04:20:59.923Z,100261.72
2022-12-23T04:23:27.544Z,100267.38
2022-12-23T04:25:53.877Z,100266.03
2022-12-23T04:28:20.192Z,100259.91
2022-12-23T04:30:46.519Z,100265.72
2022-12-23T04:33:13.107Z,100264.22
2022-12-23T04:35:39.667Z,100270.53
2022-12-23T04:38:06.029Z,100272.50
2022-12-23T04:40:33.705Z,100275.66
2022-12-23T04:42:59.999Z,100283.63
2022-12-23T04:45:26.408Z,100281.28
2022-12-23T04:47:52.744Z,100286.28
2022-12-23T04:50:19.106Z,100274.66
2022-12-23T04:52:45.446Z,100278.63
2022-12-23T04:55:11.724Z,100275.00
2022-12-23T04:57:39.375Z,100285.09
2022-12-23T05:00:06.407Z,100280.97
2022-12-23T05:02:32.835Z,100271.00
2022-12-23T05:04:59.244Z,100266.53
2022-12-23T05:07:25.570Z,100260.38
2022-12-23T05:09:51.943Z,100262.72
2022-12-23T05:12:18.295Z,100265.03
2022-12-23T05:14:45.956Z,100266.38
2022-12-23T05:17:12.293Z,100267.22
2022-12-23T05:19:38.624Z,100267.22
2022-12-23T05:22:04.954Z,100277.81
2022-12-23T05:24:31.311Z,100285.94
2022-12-23T05:27:00.108Z,100291.91
2022-12-23T05:29:26.923Z,100298.88
2022-12-23T05:31:54.660Z,100310.13
2022-12-23T05:34:21.452Z,100314.97
2022-12-23T05:36:47.802Z,100315.78
2022-12-23T05:39:14.215Z,100320.59
2022-12-23T05:41:40.603Z,100319.59
2022-12-23T05:44:06.941Z,100318.75
2022-12-23T05:46:33.596Z,100326.06
2022-12-23T05:49:01.406Z,100332.03
2022-12-23T05:51:27.722Z,100326.06
2022-12-23T05:53:54.009Z,100325.56
2022-12-23T05:56:20.365Z,100315.28
2022-12-23T05:58:46.691Z,100312.47
2022-12-23T06:01:14.268Z,100308.31
2022-12-23T06:03:40.678Z,100310.31
2022-12-23T06:06:08.497Z,100303.34
2022-12-23T06:08:34.876Z,100303.00
2022-12-23T06:11:03.774Z,100299.53
2022-12-23T06:13:30.106Z,100301.34
2022-12-23T06:15:56.741Z,100299.88
2022-12-23T06:18:23.041Z,100288.06
2022-12-23T06:20:49.350Z,100288.25
2022-12-23T06:23:17.042Z,100286.41
2022-12-23T06:25:43.328Z,100282.09
2022-12-23T06:28:09.622Z,100277.63
2022-12-23T06:30:35.966Z,100269.66
2022-12-23T06:33:02.301Z,100278.47
2022-12-23T06:35:28.748Z,100274.97
2022-12-23T06:37:55.064Z,100269.66
2022-12-23T06:40:22.729Z,100277.00
2022-12-23T06:42:49.087Z,100280.47
2022-12-23T06:45:15.468Z,100277.31
2022-12-23T06:47:41.754Z,100283.28
2022-12-23T06:50:08.461Z,100288.75
2022-12-23T06:52:34.773Z,100296.53
2022-12-23T06:55:01.101Z,100305.34
2022-12-23T06:57:28.762Z,100317.09
2022-12-23T06:59:55.320Z,100325.88
2022-12-23T07:02:21.777Z,100323.41
2022-12-23T07:04:48.193Z,100335.66
2022-12-23T07:07:14.499Z,100337.50
2022-12-23T07:09:40.810Z,100337.50
2022-12-23T07:12:07.170Z,100357.03
2022-12-23T07:14:34.794Z,100355.22
2022-12-23T07:17:01.206Z,100366.81
2022-12-23T07:19:27.543Z,100362.34
2022-12-23T07:21:53.848Z,100353.41
2022-12-23T07:24:20.273Z,100356.88
2022-12-23T07:26:46.604Z,100354.41
2022-12-23T07:29:12.921Z,100343.78
2022-12-23T07:31:41.269Z,100344.63
2022-12-23T07:34:07.936Z,100352.41
2022-12-23T07:36:34.293Z,100348.09
2022-12-23T07:39:00.637Z,100343.78
2022-12-23T07:41:26.930Z,100333.16
2022-12-23T07:43:53.231Z,100328.03
2022-12-23T07:46:19.629Z,100324.38
2022-12-23T07:48:47.337Z,100322.72
2022-12-23T07:51:13.704Z,100341.44
2022-12-23T07:53:40.053Z,100324.84
2022-12-23T07:56:06.609Z,100327.50
2022-12-23T07:58:32.903Z,100333.00
2022-12-23T08:01:00.310Z,100327.50
2022-12-23T08:03:26.690Z,100332.19
2022-12-23T08:06:00.264Z,100336.50
2022-12-23T08:08:26.610Z,100327.50
2022-12-23T08:10:56.446Z,100332.81
2022-12-23T08:13:22.814Z,100316.09
2022-12-23T08:15:49.171Z,100312.44
2022-12-23T08:18:15.470Z,100306.28
2022-12-23T08:20:41.790Z,100307.13
2022-12-23T08:23:09.490Z,100300.19
2022-12-23T08:25:35.808Z,100297.53
2022-12-23T08:28:02.114Z,100315.28
2022-12-23T08:30:28.571Z,100315.28
2022-12-23T08:32:55.017Z,100311.59
2022-12-23T08:35:21.391Z,100326.53
2022-12-23T08:37:47.693Z,100327.50
2022-12-23T08:40:15.417Z,100328.34
2022-12-23T08:42:41.749Z,100332.66
2022-12-23T08:45:08.475Z,100328.34
2022-12-23T08:47:34.800Z,100330.84
2022-12-23T08:50:01.140Z,100328.19
2022-12-23T08:52:27.967Z,100321.88
2022-12-23T08:54:54.274Z,100301.66
2022-12-23T08:57:21.942Z,100300.66
2022-12-23T08:59:48.258Z,100296.19
2022-12-23T09:02:14.783Z,100296.19
2022-12-23T09:04:41.274Z,100292.72
2022-12-23T09:07:07.633Z,100299.00
2022-12-23T09:09:33.932Z,100300.00
2022-12-23T09:12:00.251Z,100290.38
2022-12-23T09:14:27.942Z,100275.50
2022-12-23T09:16:54.244Z,100269.34
2022-12-23T09:19:20.561Z,100258.91
2022-12-23T09:21:46.849Z,100275.66
2022-12-23T09:24:13.159Z,100256.41
2022-12-23T09:26:39.525Z,100252.94
2022-12-23T09:29:05.836Z,100250.28
2022-12-23T09:31:37.317Z,100248.47
2022-12-23T09:34:04.324Z,100246.47
2022-12-23T09:36:30.752Z,100247.31
2022-12-23T09:38:57.868Z,100245.47
2022-12-23T09:41:31.411Z,100232.03
2022-12-23T09:44:08.085Z,100247.16
2022-12-23T09:46:38.572Z,100228.38
2022-12-23T09:49:09.142Z,100224.75
2022-12-23T09:51:35.453Z,100215.78
2022-12-23T09:54:05.113Z,100209.66
2022-12-23T09:56:35.796Z,100211.31
2022-12-23T09:59:07.490Z,100209.34
2022-12-23T10:01:40.110Z,100204.88
2022-12-23T10:04:28.795Z,100216.16
2022-12-23T10:07:03.582Z,100221.59
2022-12-23T10:09:30.744Z,100209.69
2022-12-23T10:11:57.468Z,100216.97
2022-12-23T10:14:25.051Z,100215.16
2022-12-23T10:16:53.641Z,100215.97
2022-12-23T10:19:24.230Z,100213.31
2022-12-23T10:21:52.348Z,100211.31
2022-12-23T10:24:21.766Z,100209.50
2022-12-23T10:26:51.714Z,100187.44
2022-12-23T10:29:19.865Z,100188.28
2022-12-23T10:31:52.989Z,100183.63
2022-12-23T10:34:21.039Z,100175.50
2022-12-23T10:36:52.121Z,100167.22
2022-12-23T10:39:24.614Z,100164.41
2022-12-23T10:41:57.367Z,100146.66
2022-12-23T10:44:36.518Z,100143.00
2022-12-23T10:47:11.335Z,100134.69
2022-12-23T10:49:42.966Z,100129.38
2022-12-23T10:52:12.923Z,100124.91
2022-12-23T10:54:41.409Z,100130.38
2022-12-23T10:57:08.416Z,100126.06
2022-12-23T10:59:35.350Z,100114.63
2022-12-23T11:02:12.904Z,100120.78
2022-12-23T11:04:40.096Z,100109.53
2022-12-23T11:07:42.053Z,100100.38
2022-12-23T11:09:58.634Z,100095.56
2022-12-23T11:12:25.858Z,100088.94
2022-12-23T11:14:53.323Z,100073.31
2022-12-23T11:17:21.229Z,100064.00
2022-12-23T11:19:47.662Z,100047.09
2022-12-23T11:22:24.170Z,100038.75
2022-12-23T11:24:50.704Z,100022.22
2022-12-23T11:27:19.414Z,100028.97
2022-12-23T11:29:48.065Z,100030.81
2022-12-23T11:32:17.196Z,100029.19
2022-12-23T11:34:44.984Z,100038.97
2022-12-23T11:37:23.273Z,100038.47
2022-12-23T11:39:49.705Z,100037.81
2022-12-23T11:42:17.283Z,100032.84
2022-12-23T11:44:46.716Z,100023.59
2022-12-23T11:47:24.004Z,100022.94
2022-12-23T11:49:51.169Z,100011.81
2022-12-23T11:52:18.613Z,100002.56
2022-12-23T11:54:54.199Z,99993.13
2022-12-23T11:57:22.792Z,99981.03
2022-12-23T11:59:55.687Z,99967.94
2022-12-23T12:02:26.724Z,99953.19
2022-12-23T12:04:55.957Z,99945.59
2022-12-23T12:07:22.377Z,99933.16
2022-12-23T12:09:48.761Z,99935.16
2022-12-23T12:12:16.680Z,99937.81
2022-12-23T12:14:44.249Z,99937.97
2022-12-23T12:17:16.888Z,99936.97
2022-12-23T12:19:55.740Z,99934.50
2022-12-23T12:22:28.742Z,99927.53
2022-12-23T12:24:55.395Z,99919.56
2022-12-23T12:27:26.101Z,99898.34
2022-12-23T12:29:53.880Z,99891.41
2022-12-23T12:32:25.669Z,99875.84
2022-12-23T12:34:54.617Z,99887.09
2022-12-23T12:37:25.769Z,99879.31
2022-12-23T12:39:53.400Z,99876.66
2022-12-23T12:42:24.603Z,99865.41
2022-12-23T12:44:55.647Z,99863.22
2022-12-23T12:47:52.649Z,99855.44
2022-12-23T12:50:16.386Z,99854.81
2022-12-23T12:52:43.262Z,99845.19
2022-12-23T12:55:14.614Z,99835.44
2022-12-23T12:57:40.950Z,99823.84
2022-12-23T13:00:13.615Z,99808.94
2022-12-23T13:02:49.300Z,99802.63
2022-12-23T13:05:31.228Z,99796.06
2022-12-23T13:08:05.913Z,99788.53
2022-12-23T13:10:36.770Z,99789.75
2022-12-23T13:13:08.467Z,99782.78
2022-12-23T13:15:38.177Z,99763.84
2022-12-23T13:18:13.652Z,99755.63
2022-12-23T13:20:43.114Z,99753.81
2022-12-23T13:23:41.569Z,99744.19
2022-12-23T13:26:01.484Z,99737.72
2022-12-23T13:28:33.406Z,99731.09
2022-12-23T13:31:03.117Z,99729.28
2022-12-23T13:33:33.990Z,99738.13
2022-12-23T13:36:06.359Z,99721.84
2022-12-23T13:38:45.382Z,99709.63
2022-12-23T13:41:16.348Z,99707.31
2022-12-23T13:43:45.889Z,99706.97
2022-12-23T13:46:15.653Z,99692.25
2022-12-23T13:48:49.146Z,99680.63
2022-12-23T13:51:19.661Z,99682.81
2022-12-23T13:53:49.555Z,99679.16
2022-12-23T13:56:20.463Z,99704.66
2022-12-23T13:58:47.420Z,99709.41
2022-12-23T14:01:21.518Z,99703.94
2022-12-23T14:03:49.523Z,99692.00
2022-12-23T14:06:19.917Z,99688.34
2022-12-23T14:08:46.316Z,99669.97
2022-12-23T14:11:15.897Z,99661.66
2022-12-23T14:13:43.398Z,99663.47
2022-12-23T14:16:14.729Z,99676.38
2022-12-23T14:18:49.706Z,99670.88
2022-12-23T14:21:21.516Z,99667.72
2022-12-23T14:24:04.021Z,99664.06
2022-12-23T14:26:39.543Z,99676.97
2022-12-23T14:29:15.274Z,99669.63
2022-12-23T14:31:44.529Z,99664.97
2022-12-23T14:34:26.029Z,99660.97
2022-12-23T14:37:10.945Z,99665.94
2022-12-23T14:39:38.708Z,99670.84
2022-12-23T14:42:08.203Z,99672.16
2022-12-23T14:44:47.211Z,99663.84
2022-12-23T14:47:31.683Z,99669.41
2022-12-23T14:50:25.424Z,99665.03
2022-12-23T14:52:59.358Z,99667.78
2022-12-23T14:55:43.433Z,99669.38
2022-12-23T14:58:20.384Z,99667.47
2022-12-23T15:00:47.575Z,99676.97
2022-12-23T15:03:15.990Z,99674.25
2022-12-23T15:05:42.686Z,99671.50
2022-12-23T15:08:18.838Z,99668.56
2022-12-23T15:10:46.591Z,99684.19
2022-12-23T15:13:14.066Z,99673.84
2022-12-23T15:15:50.211Z,99677.56
2022-12-23T15:18:19.264Z,99683.34
2022-12-23T15:20:57.223Z,99681.34
2022-12-23T15:23:23.554Z,99683.00
2022-12-23T15:25:54.557Z,99678.94
2022-12-23T15:28:22.733Z,99667.19
2022-12-23T15:30:51.250Z,99672.59
2022-12-23T15:33:51.929Z,99678.41
2022-12-23T15:36:06.827Z,99681.44
2022-12-23T15:38:35.651Z,99675.75
2022-12-23T15:41:04.208Z,99678.59
2022-12-23T15:43:30.769Z,99676.59
2022-12-23T15:46:06.841Z,99682.06
2022-12-23T15:48:33.667Z,99686.00
2022-12-23T15:51:03.270Z,99703.19
2022-12-23T15:53:32.642Z,99707.44
2022-12-23T15:56:00.399Z,99699.28
2022-12-23T15:58:28.842Z,99709.94
2022-12-23T16:00:56.352Z,99715.72
2022-12-23T16:03:25.393Z,99724.13
2022-12-23T16:05:52.189Z,99728.91
2022-12-23T16:08:28.484Z,99730.19
2022-12-23T16:10:57.209Z,99743.75
2022-12-23T16:13:23.618Z,99743.31
2022-12-23T16:15:51.336Z,99747.81
2022-12-23T16:18:20.599Z,99743.47
2022-12-23T16:20:48.682Z,99745.38
2022-12-23T16:23:15.643Z,99751.53
2022-12-23T16:25:48.550Z,99768.13
2022-12-23T16:28:18.653Z,99769.81
2022-12-23T16:30:46.643Z,99781.28
2022-12-23T16:33:26.734Z,99788.03
2022-12-23T16:35:53.520Z,99790.25
2022-12-23T16:38:20.447Z,99792.69
2022-12-23T16:40:47.589Z,99800.06
2022-12-23T16:43:14.829Z,99802.44
2022-12-23T16:45:41.871Z,99796.59
2022-12-23T16:48:10.208Z,99802.91
2022-12-23T16:50:38.015Z,99814.72
2022-12-23T16:53:04.344Z,99810.78
2022-12-23T16:55:30.643Z,99814.22
2022-12-23T16:57:56.976Z,99824.88
2022-12-23T17:00:23.482Z,99825.22
2022-12-23T17:02:49.892Z,99834.50
2022-12-23T17:05:17.040Z,99845.69
2022-12-23T17:07:45.793Z,99837.03
2022-12-23T17:10:12.871Z,99845.97
2022-12-23T17:12:39.176Z,99840.19
2022-12-23T17:15:06.431Z,99863.97
2022-12-23T17:17:32.805Z,99870.13
2022-12-23T17:19:59.188Z,99872.59
2022-12-23T17:22:25.558Z,99866.69
2022-12-23T17:24:53.228Z,99868.38
2022-12-23T17:27:20.139Z,99873.72
2022-12-23T17:29:46.613Z,99881.25
2022-12-23T17:32:14.003Z,99886.41
2022-12-23T17:34:40.383Z,99888.59
2022-12-23T17:37:12.455Z,99893.34
2022-12-23T17:39:38.796Z,99899.91
2022-12-23T17:42:06.447Z,99898.38
2022-12-23T17:44:32.780Z,99896.91
2022-12-23T17:46:59.100Z,99897.63
2022-12-23T17:49:25.423Z,99904.97
2022-12-23T17:51:51.741Z,99913.41
2022-12-23T17:54:21.165Z,99905.44
2022-12-23T17:56:47.453Z,99914.69
2022-12-23T17:59:15.305Z,99916.16
2022-12-23T18:01:41.652Z,99926.25
2022-12-23T18:04:08.020Z,99923.81
2022-12-23T18:06:34.354Z,99926.06
2022-12-23T18:09:00.637Z,99933.34
2022-12-23T18:11:30.031Z,99932.69
2022-12-23T18:13:56.446Z,99943.06
2022-12-23T18:16:24.165Z,99939.03
2022-12-23T18:18:50.572Z,99941.59
2022-12-23T18:21:20.329Z,99942.31
2022-12-23T18:23:46.654Z,99945.47
2022-12-23T18:26:13.656Z,99940.84
2022-12-23T18:28:39.939Z,99952.50
2022-12-23T18:31:06.518Z,99953.88
2022-12-23T18:33:34.259Z,99952.16
2022-12-23T18:36:00.595Z,99950.84
2022-12-23T18:38:26.916Z,99962.69
2022-12-23T18:40:54.191Z,99971.97
2022-12-23T18:43:21.664Z,99969.38
2022-12-23T18:45:52.719Z,99963.88
2022-12-23T18:48:19.768Z,99972.31
2022-12-23T18:50:47.439Z,99971.13
2022-12-23T18:53:23.105Z,99978.06
2022-12-23T18:55:50.605Z,99983.59
2022-12-23T18:58:17.188Z,99985.22
2022-12-23T19:00:44.049Z,99979.13
2022-12-23T19:03:18.436Z,99979.88
2022-12-23T19:05:46.754Z,99981.38
2022-12-23T19:08:14.404Z,99978.91
2022-12-23T19:10:41.008Z,99985.44
2022-12-23T19:13:08.971Z,99982.97
2022-12-23T19:15:35.341Z,99989.03
2022-12-23T19:18:01.842Z,99978.91
2022-12-23T19:20:28.205Z,99988.72
2022-12-23T19:22:54.522Z,99992.41
2022-12-23T19:25:22.170Z,99995.25
2022-12-23T19:27:48.487Z,99997.44
2022-12-23T19:30:15.650Z,99998.09
2022-12-23T19:32:41.999Z,99997.53
2022-12-23T19:35:11.614Z,100016.34
2022-12-23T19:37:37.914Z,100008.75
2022-12-23T19:40:04.717Z,100022.13
2022-12-23T19:42:32.415Z,100021.50
2022-12-23T19:44:58.745Z,100038.44
2022-12-23T19:47:25.068Z,100034.31
2022-12-23T19:49:51.406Z,100037.25
2022-12-23T19:52:17.732Z,100034.00
2022-12-23T19:54:44.080Z,100043.09
2022-12-23T19:57:10.390Z,100043.34
2022-12-23T19:59:38.239Z,100039.22
2022-12-23T20:02:04.781Z,100049.50
2022-12-23T20:04:31.189Z,100059.03
2022-12-23T20:06:57.523Z,100065.19
2022-12-23T20:09:26.425Z,100062.84
2022-12-23T20:11:52.838Z,100064.19
2022-12-23T20:14:20.396Z,100070.47
2022-12-23T20:16:50.661Z,100076.03
2022-12-23T20:19:17.824Z,100076.78
2022-12-23T20:21:44.351Z,100081.72
2022-12-23T20:24:10.960Z,100089.69
2022-12-23T20:26:37.429Z,100091.53
2022-12-23T20:29:03.893Z,100099.81
2022-12-23T20:31:30.801Z,100093.34
2022-12-23T20:33:58.606Z,100105.78
2022-12-23T20:36:25.890Z,100115.13
2022-12-23T20:38:52.637Z,100115.94
2022-12-23T20:41:19.792Z,100137.75
2022-12-23T20:44:02.888Z,100141.19
2022-12-23T20:46:32.702Z,100141.84
2022-12-23T20:49:00.538Z,100151.34
2022-12-23T20:51:26.885Z,100152.53
2022-12-23T20:53:53.981Z,100147.97
2022-12-23T20:56:20.929Z,100163.47
2022-12-23T20:58:47.379Z,100168.56
2022-12-23T21:01:13.784Z,100172.22
2022-12-23T21:03:40.379Z,100186.16
2022-12-23T21:06:08.837Z,100193.31
2022-12-23T21:08:35.888Z,100190.34
2022-12-23T21:11:02.571Z,100194.03
2022-12-23T21:13:29.192Z,100188.06
2022-12-23T21:15:59.862Z,100194.03
2022-12-23T21:18:26.193Z,100204.84
2022-12-23T21:20:52.479Z,100196.91
2022-12-23T21:23:20.191Z,100211.41
2022-12-23T21:25:46.538Z,100203.59
2022-12-23T21:28:12.890Z,100214.22
2022-12-23T21:30:39.262Z,100215.31
2022-12-23T21:33:05.598Z,100219.44
2022-12-23T21:35:31.918Z,100214.81
2022-12-23T21:37:58.212Z,100240.41
2022-12-23T21:40:25.963Z,100240.69
2022-12-23T21:42:52.255Z,100241.91
2022-12-23T21:45:19.155Z,100241.91
2022-12-23T21:47:45.509Z,100260.16
2022-12-23T21:50:11.878Z,100256.53
2022-12-23T21:52:38.198Z,100263.69
2022-12-23T21:55:04.834Z,100251.41
2022-12-23T21:57:32.515Z,100262.19
2022-12-23T21:59:58.832Z,100268.00
2022-12-23T22:02:25.205Z,100261.25
2022-12-23T22:04:51.505Z,100262.09
2022-12-23T22:07:17.769Z,100272.34
2022-12-23T22:09:44.082Z,100268.53
2022-12-23T22:12:10.399Z,100276.31
2022-12-23T22:14:38.172Z,100284.00
2022-12-23T22:17:04.491Z,100292.44
2022-12-23T22:19:30.809Z,100291.41
2022-12-23T22:21:57.106Z,100292.44
2022-12-23T22:24:23.541Z,100293.22
2022-12-23T22:26:49.886Z,100308.38
2022-12-23T22:29:16.225Z,100311.56
2022-12-23T22:31:45.505Z,100317.75
2022-12-23T22:34:12.880Z,100322.53
2022-12-23T22:36:39.317Z,100325.69
2022-12-23T22:39:07.567Z,100322.56
2022-12-23T22:41:34.593Z,100321.25
2022-12-23T22:44:00.944Z,100326.41
2022-12-23T22:46:27.886Z,100330.72
2022-12-23T22:48:55.664Z,100323.41
2022-12-23T22:51:22.630Z,100334.53
2022-12-23T22:53:48.999Z,100336.91
2022-12-23T22:56:16.401Z,100332.72
2022-12-23T22:58:42.831Z,100341.53
2022-12-23T23:01:17.435Z,100341.34
2022-12-23T23:03:43.786Z,100332.22
2022-12-23T23:06:11.515Z,100339.41
2022-12-23T23:08:37.837Z,100338.09
2022-12-23T23:11:04.760Z,100357.03
2022-12-23T23:13:32.298Z,100359.69
2022-12-23T23:15:59.335Z,100366.69
2022-12-23T23:18:26.033Z,100358.22
2022-12-23T23:20:52.366Z,100361.19
2022-12-23T23:23:20.198Z,100369.38
2022-12-23T23:25:46.632Z,100369.19
2022-12-23T23:28:12.968Z,100378.00
2022-12-23T23:30:39.609Z,100379.50
2022-12-23T23:33:05.999Z,100387.66
2022-12-23T23:35:32.329Z,100392.63
2022-12-23T23:37:58.735Z,100401.09
2022-12-23T23:40:26.487Z,100397.78
2022-12-23T23:42:52.869Z,100399.63
2022-12-23T23:45:19.250Z,100402.59
2022-12-23T23:47:45.548Z,100404.09
2022-12-23T23:50:11.917Z,100411.06
2022-12-23T23:52:38.239Z,100419.03
2022-12-23T23:55:04.951Z,100416.38
2022-12-23T23:57:32.614Z,100425.34
2022-12-23T23:59:58.921Z,100422.34
